aviador You're here:

TAPA Decoded Metar

ANTIGUA in LEEWARD ISLANDS
Report Time2018-01-21 06:00:00
UTC Time2018-01-21 06:49:37
Flight Rules vfr VFR
Wind070° at 10 kt
W.Decomp.*RWY 07: 9.8 kt HW 1.9 kt RCW
W.Rank070° ranks 4
Current wind is above 070° avg. (9.8)
Visibility9999 m
Phenomena:Light Shower Rain
Clouds:Scattered 018 Hf
Expected CloudBase > 2,000 ft AGL from Temp-Dew spread
CeilingNone
Temp25°C (ISA +10)
Dew Point20°C (74% RH)
QNH1016 hPa
Density Alt1,421 ft
Elevation46 ft
Report Wrong Elevation
Raw Report
TAPA 210600Z 07010KT 9999 -SHRA SCT018 25/20 Q1016 NOSIG=

Extra information for TAPA:More info

Metar Taf Metar & Taf Last 4 Metars F.Rules Stats Wind Profile Meteogram Temp Stats Airport Information Weather charts Add Link Nearby VenuesMetar ALERT Operation Metar Decoded Social comments